Flournoy, California
Current Conditions -  °F | °C
As of 6:54 PM on Sunday 23 Nov 2014 (Local Time) from KRBL Reporting Station
Clear Clear  
Wind Chill: 44°   Ceiling: Unl
Heat Index: 48°   Visibility: 10mi
Dew Point: 38°   Wind: 8mph
Humidity: 68%   Direction: 330°NNW
Pressure: 30.3"   Gusts: NA
Location:  39.9°N, 122.51°W
Report Text: KRBL 240254Z AUTO 33007KT 10SM CLR 09/03 A3030 RMK AO2 SLP261 T00890033 51005
Loading
Personal Weather Stations






























Interactive Weather Map New forecast layout! Learn more

10-Day Weather Forecast

Advertisements
Track Severe Weather on mobile